Time;durP1;ratioP1;P1;durP2;ratioP2;P2;SDS_P1;SDS_P2;PMS_P1;PMS_P2;Temp;Humidity;BMP_temperature;BMP_pressure;BME280_temperature;BME280_humidity;BME280_pressure;Samples;Min_cycle;Max_cycle;Signal;HPM_P1;HPM_P2
2023/07/21 00:00:34;;;;;;;2.25;0.73;;;;;;;;;;20902641;28;20678;-70
2023/07/21 00:10:36;;;;;;;1.33;0.63;;;;;;;;;;20965266;28;20230;-70
2023/07/21 00:20:38;;;;;;;0.70;0.50;;;;;;;;;;20979265;28;20227;-71
2023/07/21 00:30:40;;;;;;;1.05;0.60;;;;;;;;;;20913684;28;20707;-70
2023/07/21 00:40:42;;;;;;;1.60;0.70;;;;;;;;;;20934102;28;20775;-71
2023/07/21 00:50:48;;;;;;;1.35;0.63;;;;;;;;;;20884652;28;20225;-72
2023/07/21 01:00:49;;;;;;;1.10;0.50;;;;;;;;;;20935442;28;20690;-71
2023/07/21 01:10:51;;;;;;;1.00;0.73;;;;;;;;;;20959223;28;20226;-72
2023/07/21 01:20:54;;;;;;;0.70;0.50;;;23.10;98.20;;;;;;20908643;22;20231;-75
2023/07/21 01:30:56;;;;;;;4.07;0.77;;;23.10;98.90;;;;;;20827950;28;20276;-76
2023/07/21 01:40:58;;;;;;;1.23;0.57;;;22.80;97.80;;;;;;20871721;28;20216;-76
2023/07/21 01:51:00;;;;;;;1.40;0.80;;;;;;;;;;20870422;28;20291;-76
2023/07/21 02:01:03;;;;;;;1.58;0.70;;;22.80;99.70;;;;;;20832134;28;20271;-76
2023/07/21 02:11:05;;;;;;;1.15;0.60;;;;;;;;;;20815783;28;20233;-75
2023/07/21 02:21:29;;;;;;;1.38;0.60;;;;;;;;;;20852239;28;20652;-75
2023/07/21 02:31:31;;;;;;;1.20;0.50;;;;;;;;;;20866990;28;20234;-76
2023/07/21 02:41:33;;;;;;;0.98;0.63;;;;;;;;;;20864859;28;20229;-76
2023/07/21 02:51:34;;;;;;;1.53;0.80;;;;;;;;;;20865892;28;20230;-75
2023/07/21 03:01:36;;;;;;;0.80;0.50;;;22.50;99.90;;;;;;20879912;28;20232;-76
2023/07/21 03:11:38;;;;;;;2.10;0.68;;;;;;;;;;20895591;28;20289;-76
2023/07/21 03:21:54;;;;;;;1.05;0.63;;;;;;;;;;20879967;28;20511;-74
2023/07/21 03:31:56;;;;;;;2.83;0.70;;;;;;;;;;20864545;28;20305;-76
2023/07/21 03:41:58;;;;;;;1.80;0.67;;;;;;;;;;20866592;28;20286;-77
2023/07/21 03:52:01;;;;;;;1.75;0.93;;;;;;;;;;20902243;28;20234;-79
2023/07/21 04:02:03;;;;;;;2.65;0.88;;;;;;;;;;20883993;28;20216;-77
2023/07/21 04:12:05;;;;;;;1.00;0.70;;;21.90;99.90;;;;;;20889417;28;20249;-76
2023/07/21 04:22:07;;;;;;;1.37;0.70;;;;;;;;;;20878919;28;20798;-77
2023/07/21 04:32:09;;;;;;;1.90;0.70;;;;;;;;;;20877390;28;20881;-77
2023/07/21 04:42:11;;;;;;;1.70;0.97;;;;;;;;;;20868293;28;20228;-77
2023/07/21 04:52:15;;;;;;;1.33;0.90;;;;;;;;;;20903687;28;20645;-76
2023/07/21 05:02:17;;;;;;;3.33;0.90;;;;;;;;;;20882831;28;20285;-76
2023/07/21 05:12:19;;;;;;;1.10;0.73;;;;;;;;;;20909885;28;20377;-76
2023/07/21 05:22:44;;;;;;;1.30;0.87;;;;;;;;;;20889547;28;20966;-76
2023/07/21 05:32:57;;;;;;;1.73;1.00;;;;;;;;;;20886192;28;20229;-76
2023/07/21 05:43:02;;;;;;;1.90;0.80;;;;;;;;;;20873674;28;20292;-75
2023/07/21 05:53:05;;;;;;;1.23;0.87;;;;;;;;;;20898582;28;20223;-76
2023/07/21 06:03:07;;;;;;;1.70;1.00;;;;;;;;;;20890661;28;20700;-76
2023/07/21 06:13:10;;;;;;;1.60;0.90;;;;;;;;;;20892890;28;20218;-76
2023/07/21 06:23:41;;;;;;;1.27;0.80;;;;;;;;;;20878831;28;20236;-75
2023/07/21 06:33:43;;;;;;;1.50;0.90;;;;;;;;;;20883589;28;20221;-74
2023/07/21 06:44:05;;;;;;;2.80;0.90;;;;;;;;;;20884543;28;20664;-75
2023/07/21 06:54:35;;;;;;;1.83;0.90;;;;;;;;;;20880736;28;20261;-74
2023/07/21 07:04:37;;;;;;;1.50;0.87;;;;;;;;;;20895052;28;20222;-74
2023/07/21 07:14:39;;;;;;;1.40;0.80;;;;;;;;;;20881892;28;20210;-74
2023/07/21 07:24:41;;;;;;;1.10;0.70;;;;;;;;;;20898884;28;20261;-74
2023/07/21 07:34:42;;;;;;;1.10;0.67;;;;;;;;;;20869903;28;20692;-74
2023/07/21 07:44:44;;;;;;;1.43;0.80;;;;;;;;;;20880009;28;20736;-74
2023/07/21 07:54:46;;;;;;;2.20;0.70;;;;;;;;;;20903095;28;20235;-74
2023/07/21 08:04:48;;;;;;;2.40;0.80;;;;;;;;;;20913332;28;20249;-74
2023/07/21 08:14:50;;;;;;;1.90;0.90;;;;;;;;;;20896654;28;20234;-74
2023/07/21 08:24:52;;;;;;;0.80;0.50;;;;;;;;;;20875200;28;20622;-74
2023/07/21 08:34:55;;;;;;;2.80;0.70;;;;;;;;;;20881584;28;20238;-74
2023/07/21 08:44:57;;;;;;;0.93;0.40;;;;;;;;;;20896105;28;20281;-74
2023/07/21 08:54:58;;;;;;;1.05;0.52;;;;;;;;;;20892266;28;20225;-74
2023/07/21 09:05:01;;;;;;;0.63;0.30;;;;;;;;;;20917260;22;20233;-71
2023/07/21 09:15:09;;;;;;;0.68;0.40;;;;;;;;;;20863527;28;20267;-71
2023/07/21 09:25:19;;;;;;;1.20;0.50;;;;;;;;;;20853037;28;20279;-71
2023/07/21 09:35:21;;;;;;;1.37;0.40;;;;;;;;;;20893196;28;20270;-71
2023/07/21 09:45:23;;;;;;;0.88;0.50;;;;;;;;;;20902616;28;20774;-71
2023/07/21 09:55:27;;;;;;;0.50;0.40;;;;;;;;;;20902795;28;20228;-71
2023/07/21 10:05:29;;;;;;;0.70;0.50;;;;;;;;;;20905115;28;20710;-71
2023/07/21 10:15:32;;;;;;;0.73;0.40;;;;;;;;;;20832580;28;20635;-72
2023/07/21 10:25:52;;;;;;;1.23;0.50;;;;;;;;;;20819569;28;20222;-71
2023/07/21 10:36:12;;;;;;;0.55;0.35;;;24.10;92.40;;;;;;20819938;28;20222;-71
2023/07/21 10:46:14;;;;;;;0.50;0.30;;;;;;;;;;20839297;28;20279;-71
2023/07/21 10:56:16;;;;;;;0.95;0.50;;;;;;;;;;20838947;28;20219;-71
2023/07/21 11:06:18;;;;;;;2.38;0.55;;;;;;;;;;20829544;28;20244;-71
2023/07/21 11:16:19;;;;;;;0.68;0.40;;;;;;;;;;20828671;28;20214;-71
2023/07/21 11:26:23;;;;;;;1.65;0.40;;;;;;;;;;20799451;28;20284;-71
2023/07/21 11:36:24;;;;;;;1.65;0.50;;;;;;;;;;20834880;28;20221;-71
2023/07/21 11:46:26;;;;;;;0.43;0.28;;;;;;;;;;20853448;28;20264;-71
2023/07/21 11:56:29;;;;;;;0.60;0.30;;;;;;;;;;20814734;28;20214;-71
2023/07/21 12:06:31;;;;;;;0.20;0.20;;;;;;;;;;20851194;28;20256;-71
2023/07/21 12:16:34;;;;;;;0.70;0.30;;;23.20;87.00;;;;;;20825444;28;20222;-71
2023/07/21 12:26:35;;;;;;;2.47;0.40;;;;;;;;;;20876464;28;20230;-71
2023/07/21 12:36:37;;;;;;;0.60;0.38;;;;;;;;;;20842864;28;20283;-71
2023/07/21 12:46:39;;;;;;;0.38;0.30;;;;;;;;;;20832887;28;20229;-71
2023/07/21 12:56:41;;;;;;;2.95;0.40;;;;;;;;;;20845289;28;20259;-71
2023/07/21 13:06:43;;;;;;;1.85;0.30;;;;;;;;;;20823136;28;20594;-71
2023/07/21 13:16:44;;;;;;;0.47;0.37;;;;;;;;;;20865190;28;20216;-71
2023/07/21 13:26:46;;;;;;;0.52;0.50;;;;;;;;;;20852910;28;20221;-71
2023/07/21 13:36:48;;;;;;;1.40;0.50;;;;;;;;;;20863783;28;20216;-71
2023/07/21 13:46:50;;;;;;;0.98;0.47;;;22.80;99.90;;;;;;20824010;28;20217;-71
2023/07/21 13:56:53;;;;;;;0.83;0.40;;;;;;;;;;20846076;28;20230;-70
2023/07/21 14:06:55;;;;;;;0.88;0.50;;;;;;;;;;20874142;28;20250;-71
2023/07/21 14:16:56;;;;;;;2.55;0.50;;;;;;;;;;20869370;28;20222;-70
2023/07/21 14:26:58;;;;;;;1.10;0.55;;;;;;;;;;20841923;28;20283;-70
2023/07/21 14:37:00;;;;;;;0.85;0.50;;;;;;;;;;20816109;28;20223;-70
2023/07/21 14:47:02;;;;;;;0.47;0.40;;;;;;;;;;20815998;28;20845;-71
2023/07/21 14:57:05;;;;;;;0.85;0.40;;;;;;;;;;20814432;28;20613;-70
2023/07/21 15:07:13;;;;;;;1.05;0.50;;;;;;;;;;20873283;22;20237;-74
2023/07/21 15:17:16;;;;;;;0.70;0.50;;;;;;;;;;20927597;28;20604;-76
2023/07/21 15:27:18;;;;;;;0.70;0.40;;;;;;;;;;20942615;28;20291;-75
2023/07/21 15:37:21;;;;;;;0.45;0.30;;;;;;;;;;20935583;28;20221;-76
2023/07/21 15:47:22;;;;;;;0.70;0.43;;;;;;;;;;20958357;28;20228;-76
2023/07/21 15:57:24;;;;;;;0.60;0.40;;;;;;;;;;20901552;28;20276;-75
2023/07/21 16:07:26;;;;;;;0.50;0.40;;;;;;;;;;20997800;28;20260;-75
2023/07/21 16:17:33;;;;;;;0.85;0.40;;;;;;;;;;20996361;28;20227;-76
2023/07/21 16:27:35;;;;;;;0.77;0.43;;;;;;;;;;20968243;28;20222;-75
2023/07/21 16:37:38;;;;;;;0.30;0.25;;;;;;;;;;21057139;28;20273;-74
2023/07/21 16:47:41;;;;;;;0.60;0.45;;;;;;;;;;20974772;28;20561;-75
2023/07/21 16:57:44;;;;;;;0.60;0.40;;;;;;;;;;21008038;28;20364;-74
2023/07/21 17:07:47;;;;;;;0.90;0.60;;;25.20;76.50;;;;;;21042516;28;20273;-75
2023/07/21 17:17:50;;;;;;;0.55;0.40;;;;;;;;;;21024428;28;20246;-74
2023/07/21 17:27:54;;;;;;;0.95;0.30;;;;;;;;;;21049739;28;20273;-74
2023/07/21 17:37:56;;;;;;;0.63;0.32;;;;;;;;;;21032016;28;20865;-75
2023/07/21 17:47:58;;;;;;;1.27;0.40;;;;;;;;;;21036788;28;20221;-75
2023/07/21 17:58:01;;;;;;;0.45;0.30;;;;;;;;;;21017833;28;20529;-75
2023/07/21 18:08:04;;;;;;;0.40;0.25;;;;;;;;;;20968607;28;20337;-74
2023/07/21 18:18:07;;;;;;;0.90;0.40;;;;;;;;;;21018698;28;20288;-75
2023/07/21 18:28:10;;;;;;;1.13;0.40;;;;;;;;;;21043508;28;20570;-80
2023/07/21 18:38:13;;;;;;;1.17;0.60;;;;;;;;;;21044363;28;20225;-73
2023/07/21 18:48:15;;;;;;;0.20;0.20;;;;;;;;;;21061863;28;20215;-73
2023/07/21 18:58:18;;;;;;;5.30;0.80;;;;;;;;;;21042581;28;20265;-73
2023/07/21 19:08:23;;;;;;;0.63;0.43;;;;;;;;;;21013666;28;20218;-73
2023/07/21 19:18:26;;;;;;;0.63;0.43;;;;;;;;;;21013946;28;20257;-73
2023/07/21 19:28:29;;;;;;;0.75;0.40;;;;;;;;;;20972286;28;20383;-74
2023/07/21 19:38:31;;;;;;;0.52;0.40;;;;;;;;;;21051909;28;20231;-73
2023/07/21 19:48:33;;;;;;;0.50;0.35;;;;;;;;;;21039196;28;20272;-74
2023/07/21 19:58:34;;;;;;;0.70;0.43;;;;;;;;;;21063484;28;20220;-74
2023/07/21 20:08:37;;;;;;;0.43;0.30;;;;;;;;;;21028963;28;20290;-74
2023/07/21 20:18:39;;;;;;;3.33;0.65;;;;;;;;;;21031444;28;20284;-74
2023/07/21 20:28:41;;;;;;;0.57;0.47;;;;;;;;;;21049062;28;20225;-74
2023/07/21 20:38:42;;;;;;;1.25;0.60;;;;;;;;;;21071891;28;20262;-73
2023/07/21 20:48:44;;;;;;;0.80;0.40;;;;;;;;;;21070854;28;20252;-73
2023/07/21 20:58:46;;;;;;;0.75;0.50;;;;;;;;;;21064933;28;20220;-73
2023/07/21 21:08:47;;;;;;;0.63;0.40;;;;;;;;;;21060622;22;20290;-69
2023/07/21 21:18:49;;;;;;;0.50;0.30;;;;;;;;;;20962083;28;20623;-69
2023/07/21 21:28:51;;;;;;;0.55;0.40;;;;;;;;;;21030249;28;20258;-69
2023/07/21 21:38:53;;;;;;;1.10;0.57;;;;;;;;;;21024739;28;20210;-69
2023/07/21 21:48:55;;;;;;;0.63;0.32;;;;;;;;;;21040999;28;20221;-69
2023/07/21 21:58:57;;;;;;;1.52;0.50;;;;;;;;;;20980276;28;20267;-69
2023/07/21 22:08:59;;;;;;;1.15;0.60;;;;;;;;;;20996356;28;20513;-69
2023/07/21 22:19:01;;;;;;;0.82;0.43;;;;;;;;;;20947319;28;20304;-69
2023/07/21 22:29:03;;;;;;;1.73;0.50;;;;;;;;;;20953354;28;20773;-69
2023/07/21 22:39:04;;;;;;;0.80;0.60;;;;;;;;;;20981943;28;20282;-69
2023/07/21 22:49:07;;;;;;;0.82;0.45;;;;;;;;;;20926176;28;20842;-69
2023/07/21 22:59:09;;;;;;;1.67;0.50;;;;;;;;;;20957277;28;20217;-69
2023/07/21 23:09:11;;;;;;;0.50;0.40;;;;;;;;;;21046531;28;20634;-69
2023/07/21 23:19:13;;;;;;;1.53;0.60;;;;;;;;;;21033548;28;20247;-69
2023/07/21 23:29:15;;;;;;;1.20;0.67;;;;;;;;;;20969811;28;20273;-69
2023/07/21 23:39:17;;;;;;;0.50;0.47;;;;;;;;;;20928369;28;20245;-69
2023/07/21 23:49:19;;;;;;;0.80;0.50;;;;;;;;;;21010049;28;20274;-69
2023/07/21 23:59:20;;;;;;;0.60;0.40;;;;;;;;;;20965188;28;20226;-69
